Baotu, China

43°F / 6°C
Partly Cloudy
Windchill: 40°F / 4°C
Humidity: 87%
Dew Point: 39°F / 4°C
Wind: NNE at 4 mph / 7 km/h
Pressure: 30.15 in / 1021 hPa (Steady)
Visibility: 2.5 miles / 4.0 kilometers
Clouds: (FEW) : 1500 ft / 457 m
Yesterday's Maximum: 57°F / 14°C
Yesterday's Minimum: 48°F / 9°C approx.
Yesterday's Heating Degree Days: 12 approx.
UV: 0 out of 16
Sunrise:7:30 AM CST
Sunset:6:49 PM CST
Moon Rise:9:51 PM CST
Moon Set:9:25 AM CST
Moon Phase Waning Gibbous
NOAA Weather Radio
No local feed.
METAR ZUCK 220000Z 02002MPS 4000 BR FEW015 06/04 Q1021 NOSIG
As of: 8:00 AM CST on February 22, 2019
Observed at: Chongqing, China

View Station's History

Local Satellite

Current Satellite Forecast
Region Default Local
No Yes

View Full Screen WunderMap

Forecast

Current Satellite Forecast

Features

Weather Apps

WunderRadio

Weather Underground Apps
Check out our wide variety of mobile and setup applications.

Weather Underground Applications

Top of Page

© Copyright 2019
The Weather Company, LLC